TimeCDT,TemperatureF,Dew PointF,Humidity,Sea Level PressureIn,VisibilityMPH,Wind Direction,Wind SpeedMPH,Gust SpeedMPH,PrecipitationIn,Events,Conditions,WindDirDegrees,DateUTC
12:53 AM,46.9,30.0,52,29.97,10.0,SSE,6.9,-,N/A,,Clear,160,2012-10-11 05:53:00
1:53 AM,46.0,30.0,54,29.96,10.0,SSE,3.5,-,N/A,,Clear,150,2012-10-11 06:53:00
2:53 AM,45.0,30.0,56,29.96,10.0,SSE,3.5,-,N/A,,Clear,150,2012-10-11 07:53:00
3:53 AM,42.1,28.9,60,29.95,10.0,South,6.9,-,N/A,,Clear,180,2012-10-11 08:53:00
4:53 AM,44.1,30.0,58,29.95,10.0,Variable,3.5,-,N/A,,Clear,0,2012-10-11 09:53:00
5:53 AM,34.0,28.0,79,29.97,10.0,Calm,Calm,-,N/A,,Clear,0,2012-10-11 10:53:00
6:53 AM,35.1,28.0,76,30.00,10.0,Calm,Calm,-,N/A,,Clear,0,2012-10-11 11:53:00
7:53 AM,32.0,27.0,82,30.06,10.0,WNW,4.6,-,N/A,,Clear,290,2012-10-11 12:53:00
8:53 AM,45.0,33.1,63,30.07,10.0,North,9.2,-,N/A,,Clear,360,2012-10-11 13:53:00
9:53 AM,46.9,33.1,59,30.10,10.0,NNE,15.0,21.9,N/A,,Clear,20,2012-10-11 14:53:00
10:53 AM,48.9,33.1,54,30.15,10.0,NNE,17.3,24.2,N/A,,Clear,20,2012-10-11 15:53:00
11:53 AM,51.1,33.1,50,30.17,10.0,NNE,18.4,25.3,N/A,,Clear,20,2012-10-11 16:53:00
12:53 PM,53.1,33.1,47,30.19,10.0,NNE,17.3,27.6,N/A,,Clear,30,2012-10-11 17:53:00
1:53 PM,53.1,32.0,45,30.20,10.0,NNE,18.4,28.8,N/A,,Clear,30,2012-10-11 18:53:00
2:53 PM,53.1,30.0,41,30.20,10.0,NNE,13.8,27.6,N/A,,Clear,20,2012-10-11 19:53:00
3:53 PM,52.0,27.0,38,30.22,10.0,NNE,17.3,26.5,N/A,,Clear,20,2012-10-11 20:53:00
4:53 PM,53.6,24.8,33,30.19,10.0,NNE,19.6,25.3,N/A,,Clear,20,2012-10-11 21:53:00
5:53 PM,51.1,21.9,32,30.27,10.0,NE,16.1,21.9,N/A,,Clear,40,2012-10-11 22:53:00
6:53 PM,46.9,23.0,39,30.30,10.0,NE,10.4,-,N/A,,Clear,40,2012-10-11 23:53:00
7:53 PM,42.1,24.1,49,30.34,10.0,NNE,5.8,-,N/A,,Clear,30,2012-10-12 00:53:00
8:53 PM,39.9,24.1,53,30.35,10.0,NNE,5.8,-,N/A,,Clear,30,2012-10-12 01:53:00
10:53 PM,36.0,25.0,64,30.39,10.0,NNE,4.6,-,N/A,,Clear,20,2012-10-12 03:53:00
11:53 PM,33.1,25.0,72,30.40,10.0,North,4.6,-,N/A,,Clear,10,2012-10-12 04:53:00